createdAt,value
2017-09-01T00:02:13.069Z,13.00
2017-09-01T00:04:40.576Z,12.90
2017-09-01T00:07:08.091Z,12.90
2017-09-01T00:09:35.633Z,12.90
2017-09-01T00:12:03.159Z,13.00
2017-09-01T00:14:33.730Z,13.00
2017-09-01T00:17:01.296Z,13.00
2017-09-01T00:19:28.814Z,13.00
2017-09-01T00:21:56.320Z,13.00
2017-09-01T00:24:23.824Z,12.90
2017-09-01T00:26:51.346Z,13.00
2017-09-01T00:29:18.836Z,13.00
2017-09-01T00:31:46.367Z,13.00
2017-09-01T00:34:13.865Z,13.00
2017-09-01T00:36:41.387Z,13.00
2017-09-01T00:39:08.911Z,13.00
2017-09-01T00:41:36.421Z,12.90
2017-09-01T00:44:03.946Z,12.90
2017-09-01T00:46:31.449Z,12.90
2017-09-01T00:48:59.001Z,12.90
2017-09-01T00:51:26.502Z,12.90
2017-09-01T00:53:54.033Z,12.90
2017-09-01T00:56:21.540Z,12.90
2017-09-01T00:58:49.060Z,12.90
2017-09-01T01:01:16.556Z,12.90
2017-09-01T01:03:44.098Z,12.80
2017-09-01T01:06:11.598Z,12.90
2017-09-01T01:08:39.265Z,12.90
2017-09-01T01:11:06.819Z,12.90
2017-09-01T01:13:49.568Z,12.90
2017-09-01T01:16:17.109Z,12.90
2017-09-01T01:18:44.691Z,12.90
2017-09-01T01:21:12.213Z,12.80
2017-09-01T01:23:39.742Z,12.80
2017-09-01T01:26:07.264Z,12.80
2017-09-01T01:28:34.796Z,12.80
2017-09-01T01:31:03.398Z,12.70
2017-09-01T01:33:30.924Z,12.70
2017-09-01T01:35:58.407Z,12.70
2017-09-01T01:38:25.947Z,12.70
2017-09-01T01:40:53.436Z,12.70
2017-09-01T01:43:20.922Z,12.70
2017-09-01T01:45:48.432Z,12.60
2017-09-01T01:48:15.935Z,12.50
2017-09-01T01:50:43.464Z,12.50
2017-09-01T01:53:10.968Z,12.40
2017-09-01T01:55:38.514Z,12.40
2017-09-01T01:58:06.009Z,12.40
2017-09-01T02:00:33.544Z,12.30
2017-09-01T02:03:01.041Z,12.40
2017-09-01T02:05:28.578Z,12.30
2017-09-01T02:07:56.109Z,12.30
2017-09-01T02:10:23.641Z,12.30
2017-09-01T02:12:51.164Z,12.30
2017-09-01T02:15:18.668Z,12.20
2017-09-01T02:17:46.190Z,12.30
2017-09-01T02:20:13.704Z,12.30
2017-09-01T02:22:41.196Z,12.30
2017-09-01T02:25:08.744Z,12.30
2017-09-01T02:27:36.258Z,12.20
2017-09-01T02:30:03.775Z,12.10
2017-09-01T02:32:31.285Z,12.10
2017-09-01T02:34:58.776Z,12.10
2017-09-01T02:37:26.302Z,12.10
2017-09-01T02:39:53.811Z,12.00
2017-09-01T02:42:21.336Z,12.10
2017-09-01T02:44:48.850Z,12.10
2017-09-01T02:47:16.392Z,12.00
2017-09-01T02:49:43.889Z,12.00
2017-09-01T02:52:11.439Z,12.00
2017-09-01T02:54:38.941Z,12.00
2017-09-01T02:57:06.460Z,12.10
2017-09-01T02:59:33.965Z,12.00
2017-09-01T03:02:01.517Z,11.90
2017-09-01T03:04:29.009Z,11.80
2017-09-01T03:06:56.526Z,11.80
2017-09-01T03:09:24.020Z,11.80
2017-09-01T03:11:52.246Z,11.80
2017-09-01T03:14:19.752Z,11.80
2017-09-01T03:16:47.336Z,11.90
2017-09-01T03:19:14.823Z,11.90
2017-09-01T03:21:43.064Z,11.90
2017-09-01T03:24:10.559Z,11.90
2017-09-01T03:26:38.105Z,11.80
2017-09-01T03:29:05.638Z,11.80
2017-09-01T03:31:33.161Z,11.70
2017-09-01T03:34:00.832Z,11.70
2017-09-01T03:36:28.383Z,11.70
2017-09-01T03:38:55.994Z,11.70
2017-09-01T03:41:23.511Z,11.80
2017-09-01T03:43:51.041Z,11.80
2017-09-01T03:46:18.575Z,11.80
2017-09-01T03:48:46.106Z,11.70
2017-09-01T03:51:13.631Z,11.70
2017-09-01T03:53:41.215Z,11.70
2017-09-01T03:56:08.788Z,11.70
2017-09-01T03:58:36.411Z,11.80
2017-09-01T04:01:03.928Z,11.90
2017-09-01T04:03:31.493Z,11.80
2017-09-01T04:05:59.019Z,11.80
2017-09-01T04:08:26.551Z,11.70
2017-09-01T04:10:54.084Z,11.70
2017-09-01T04:13:21.661Z,11.60
2017-09-01T04:15:49.201Z,11.50
2017-09-01T04:18:16.757Z,11.40
2017-09-01T04:20:44.283Z,11.50
2017-09-01T04:23:11.834Z,11.50
2017-09-01T04:25:39.383Z,11.40
2017-09-01T04:28:06.954Z,11.30
2017-09-01T04:30:34.519Z,11.30
2017-09-01T04:33:02.039Z,11.30
2017-09-01T04:35:29.693Z,11.30
2017-09-01T04:37:57.236Z,11.30
2017-09-01T04:40:24.853Z,11.40
2017-09-01T04:42:52.375Z,11.40
2017-09-01T04:45:19.935Z,11.40
2017-09-01T04:47:47.499Z,11.40
2017-09-01T04:50:15.100Z,11.50
2017-09-01T04:52:42.658Z,11.50
2017-09-01T04:55:10.219Z,11.40
2017-09-01T04:57:37.724Z,11.30
2017-09-01T05:00:05.338Z,11.40
2017-09-01T05:02:32.853Z,11.40
2017-09-01T05:05:00.363Z,11.40
2017-09-01T05:07:27.906Z,11.40
2017-09-01T05:09:55.477Z,11.50
2017-09-01T05:12:23.016Z,11.60
2017-09-01T05:14:50.583Z,11.50
2017-09-01T05:17:18.109Z,11.60
2017-09-01T05:19:45.664Z,11.60
2017-09-01T05:22:13.257Z,11.70
2017-09-01T05:24:40.824Z,11.80
2017-09-01T05:27:08.349Z,11.80
2017-09-01T05:29:35.880Z,11.70
2017-09-01T05:32:03.397Z,11.60
2017-09-01T05:34:31.027Z,11.50
2017-09-01T05:36:58.571Z,11.50
2017-09-01T05:39:26.114Z,11.60
2017-09-01T05:41:53.651Z,11.90
2017-09-01T05:44:21.146Z,12.10
2017-09-01T05:46:48.680Z,12.20
2017-09-01T05:49:16.197Z,12.30
2017-09-01T05:51:43.789Z,12.40
2017-09-01T05:54:11.336Z,12.40
2017-09-01T05:56:38.866Z,12.40
2017-09-01T05:59:06.391Z,12.50
2017-09-01T06:01:33.946Z,12.60
2017-09-01T06:04:01.492Z,12.70
2017-09-01T06:06:29.040Z,12.80
2017-09-01T06:08:56.582Z,12.80
2017-09-01T06:11:24.171Z,12.90
2017-09-01T06:13:51.717Z,12.90
2017-09-01T06:16:19.252Z,13.10
2017-09-01T06:18:46.773Z,13.10
2017-09-01T06:21:14.288Z,13.20
2017-09-01T06:23:41.811Z,13.20
2017-09-01T06:26:09.345Z,13.20
2017-09-01T06:28:36.868Z,13.20
2017-09-01T06:31:04.415Z,13.30
2017-09-01T06:33:31.959Z,13.40
2017-09-01T06:35:59.480Z,13.40
2017-09-01T06:38:27.008Z,13.40
2017-09-01T06:40:54.536Z,13.50
2017-09-01T06:43:22.055Z,13.50
2017-09-01T06:45:49.590Z,13.60
2017-09-01T06:48:17.119Z,13.70
2017-09-01T06:50:44.635Z,13.70
2017-09-01T06:53:12.145Z,13.70
2017-09-01T06:55:39.748Z,13.90
2017-09-01T06:58:07.490Z,14.00
2017-09-01T07:00:35.076Z,14.10
2017-09-01T07:03:02.584Z,14.20
2017-09-01T07:05:30.131Z,14.30
2017-09-01T07:07:57.620Z,14.40
2017-09-01T07:10:25.152Z,14.40
2017-09-01T07:12:52.664Z,14.50
2017-09-01T07:15:20.191Z,14.50
2017-09-01T07:17:47.693Z,14.70
2017-09-01T07:20:15.274Z,14.60
2017-09-01T07:22:42.779Z,14.70
2017-09-01T07:25:10.324Z,14.80
2017-09-01T07:27:37.881Z,14.90
2017-09-01T07:30:05.422Z,14.90
2017-09-01T07:32:32.945Z,14.90
2017-09-01T07:35:00.463Z,15.00
2017-09-01T07:37:28.024Z,15.10
2017-09-01T07:39:55.533Z,15.20
2017-09-01T07:42:23.040Z,15.30
2017-09-01T07:44:50.554Z,15.30
2017-09-01T07:47:18.043Z,15.40
2017-09-01T07:49:45.560Z,15.50
2017-09-01T07:52:13.113Z,15.60
2017-09-01T07:54:40.641Z,15.60
2017-09-01T07:57:08.165Z,15.60
2017-09-01T07:59:35.693Z,15.70
2017-09-01T08:02:03.203Z,15.80
2017-09-01T08:04:30.714Z,15.90
2017-09-01T08:06:58.237Z,16.00
2017-09-01T08:09:25.751Z,16.10
2017-09-01T08:11:53.302Z,16.10
2017-09-01T08:14:20.800Z,16.20
2017-09-01T08:16:48.307Z,16.20
2017-09-01T08:19:15.809Z,16.30
2017-09-01T08:21:43.351Z,16.30
2017-09-01T08:24:10.870Z,16.30
2017-09-01T08:26:38.390Z,16.40
2017-09-01T08:29:05.890Z,16.40
2017-09-01T08:31:33.432Z,16.40
2017-09-01T08:34:00.983Z,16.50
2017-09-01T08:36:28.641Z,16.50
2017-09-01T08:38:56.261Z,16.60
2017-09-01T08:41:23.801Z,16.60
2017-09-01T08:43:51.328Z,16.70
2017-09-01T08:46:18.859Z,16.70
2017-09-01T08:48:46.397Z,16.90
2017-09-01T08:51:13.903Z,16.90
2017-09-01T08:53:41.465Z,17.00
2017-09-01T08:56:08.999Z,17.10
2017-09-01T08:58:36.691Z,17.10
2017-09-01T09:01:04.192Z,17.20
2017-09-01T09:03:31.732Z,17.30
2017-09-01T09:05:59.268Z,17.50
2017-09-01T09:08:26.797Z,17.70
2017-09-01T09:10:54.376Z,17.90
2017-09-01T09:13:21.903Z,18.00
2017-09-01T09:15:49.448Z,18.10
2017-09-01T09:18:17.013Z,18.20
2017-09-01T09:20:44.772Z,18.10
2017-09-01T09:23:12.348Z,18.10
2017-09-01T09:25:39.871Z,18.10
2017-09-01T09:28:07.403Z,18.20
2017-09-01T09:30:34.923Z,18.30
2017-09-01T09:33:02.463Z,18.20
2017-09-01T09:35:29.979Z,18.10
2017-09-01T09:37:57.531Z,18.20
2017-09-01T09:40:25.141Z,18.30
2017-09-01T09:42:52.703Z,18.40
2017-09-01T09:45:20.219Z,18.60
2017-09-01T09:47:47.769Z,18.60
2017-09-01T09:50:15.307Z,18.60
2017-09-01T09:52:42.840Z,18.50
2017-09-01T09:55:11.224Z,18.60
2017-09-01T09:57:39.652Z,18.60
2017-09-01T10:00:07.202Z,18.60
2017-09-01T10:02:34.748Z,18.60
2017-09-01T10:05:02.374Z,18.70
2017-09-01T10:07:29.917Z,18.70
2017-09-01T10:09:57.490Z,18.70
2017-09-01T10:12:24.998Z,18.80
2017-09-01T10:14:52.532Z,18.80
2017-09-01T10:17:20.084Z,18.90
2017-09-01T10:19:47.616Z,19.00
2017-09-01T10:22:15.217Z,19.00
2017-09-01T10:24:42.875Z,19.10
2017-09-01T10:27:10.524Z,19.10
2017-09-01T10:29:38.029Z,19.10
2017-09-01T10:32:05.581Z,19.00
2017-09-01T10:34:33.123Z,18.70
2017-09-01T10:37:00.663Z,18.70
2017-09-01T10:39:28.301Z,18.60
2017-09-01T10:41:56.565Z,18.60
2017-09-01T10:44:24.083Z,18.60
2017-09-01T10:46:51.615Z,18.70
2017-09-01T10:52:21.576Z,18.90
2017-09-01T10:55:00.685Z,19.00
2017-09-01T10:57:40.081Z,18.90
2017-09-01T11:00:07.656Z,19.00
2017-09-01T11:02:35.223Z,18.90
2017-09-01T11:05:02.732Z,18.90
2017-09-01T11:07:30.339Z,19.00
2017-09-01T11:09:57.895Z,19.00
2017-09-01T11:12:25.451Z,19.10
2017-09-01T11:14:53.022Z,19.10
2017-09-01T11:17:20.574Z,19.20
2017-09-01T11:22:53.404Z,19.30
2017-09-01T11:25:20.957Z,19.40
2017-09-01T11:27:48.476Z,19.40
2017-09-01T11:30:15.997Z,19.40
2017-09-01T11:32:43.555Z,19.50
2017-09-01T11:35:11.128Z,19.40
2017-09-01T11:37:38.676Z,19.50
2017-09-01T11:40:06.222Z,19.70
2017-09-01T11:42:33.775Z,19.80
2017-09-01T11:45:01.334Z,19.90
2017-09-01T11:47:28.895Z,20.10
2017-09-01T11:49:56.463Z,20.20
2017-09-01T11:52:24.011Z,20.40
2017-09-01T11:54:52.392Z,20.50
2017-09-01T11:57:19.932Z,20.60
2017-09-01T11:59:47.478Z,20.70
2017-09-01T12:02:15.075Z,20.90
2017-09-01T12:04:42.580Z,21.00
2017-09-01T12:07:10.118Z,21.20
2017-09-01T12:09:37.631Z,21.20
2017-09-01T12:12:05.176Z,21.30
2017-09-01T12:14:32.670Z,21.50
2017-09-01T12:17:00.228Z,21.60
2017-09-01T12:19:27.763Z,21.40
2017-09-01T12:21:55.293Z,21.40
2017-09-01T12:24:22.821Z,21.30
2017-09-01T12:26:50.411Z,21.20
2017-09-01T12:29:17.971Z,21.20
2017-09-01T12:31:45.530Z,21.10
2017-09-01T12:34:13.073Z,20.90
2017-09-01T12:36:40.600Z,20.70
2017-09-01T12:39:08.143Z,20.40
2017-09-01T12:41:35.667Z,20.20
2017-09-01T12:44:03.216Z,20.10
2017-09-01T12:46:30.760Z,20.00
2017-09-01T12:48:58.330Z,19.90
2017-09-01T12:51:25.903Z,19.70
2017-09-01T12:53:53.459Z,19.60
2017-09-01T12:56:20.984Z,19.60
2017-09-01T12:58:48.519Z,19.60
2017-09-01T13:01:16.099Z,19.50
2017-09-01T13:03:43.701Z,19.50
2017-09-01T13:06:11.264Z,19.50
2017-09-01T13:08:38.771Z,19.40
2017-09-01T13:11:06.324Z,19.40
2017-09-01T13:13:33.827Z,19.30
2017-09-01T13:16:01.381Z,19.30
2017-09-01T13:18:28.911Z,19.30
2017-09-01T13:20:56.475Z,19.40
2017-09-01T13:23:24.003Z,19.40
2017-09-01T13:25:51.530Z,19.40
2017-09-01T13:28:19.053Z,19.60
2017-09-01T13:30:46.606Z,19.70
2017-09-01T13:33:14.137Z,19.70
2017-09-01T13:35:41.647Z,19.70
2017-09-01T13:38:09.151Z,19.70
2017-09-01T13:40:36.692Z,19.70
2017-09-01T13:43:04.206Z,19.70
2017-09-01T13:45:31.758Z,19.70
2017-09-01T13:47:59.274Z,19.70
2017-09-01T13:50:26.779Z,19.70
2017-09-01T13:52:54.306Z,19.60
2017-09-01T13:55:21.815Z,19.50
2017-09-01T13:57:49.335Z,19.50
2017-09-01T14:00:16.864Z,19.60
2017-09-01T14:02:44.422Z,19.60
2017-09-01T14:05:11.914Z,19.60
2017-09-01T14:07:39.475Z,19.70
2017-09-01T14:10:06.994Z,19.60
2017-09-01T14:12:34.540Z,19.60
2017-09-01T14:15:02.068Z,19.70
2017-09-01T14:17:29.580Z,19.70
2017-09-01T14:19:57.064Z,19.70
2017-09-01T14:22:24.628Z,19.70
2017-09-01T14:24:52.134Z,19.70
2017-09-01T14:27:19.668Z,19.70
2017-09-01T14:29:47.202Z,19.70
2017-09-01T14:32:14.722Z,19.70
2017-09-01T14:34:42.244Z,19.60
2017-09-01T14:37:09.748Z,19.40
2017-09-01T14:39:37.260Z,19.30
2017-09-01T14:42:04.785Z,19.20
2017-09-01T14:44:32.304Z,19.20
2017-09-01T14:46:59.901Z,19.30
2017-09-01T14:49:27.440Z,19.20
2017-09-01T14:51:54.965Z,19.20
2017-09-01T14:54:22.536Z,19.20
2017-09-01T14:56:50.080Z,19.10
2017-09-01T14:59:17.604Z,19.20
2017-09-01T15:01:45.136Z,19.30
2017-09-01T15:04:12.757Z,19.30
2017-09-01T15:06:40.389Z,19.30
2017-09-01T15:09:07.930Z,19.30
2017-09-01T15:11:35.495Z,19.40
2017-09-01T15:14:03.054Z,19.30
2017-09-01T15:16:30.565Z,19.30
2017-09-01T15:18:58.291Z,19.30
2017-09-01T15:21:25.795Z,19.20
2017-09-01T15:23:53.339Z,19.20
2017-09-01T15:26:20.854Z,19.10
2017-09-01T15:28:48.390Z,19.10
2017-09-01T15:31:15.941Z,19.00
2017-09-01T15:33:43.441Z,19.00
2017-09-01T15:36:10.963Z,19.10
2017-09-01T15:38:38.507Z,19.00
2017-09-01T15:41:06.030Z,19.00
2017-09-01T15:43:33.567Z,19.00
2017-09-01T15:46:01.134Z,19.00
2017-09-01T15:48:28.646Z,18.90
2017-09-01T15:50:56.163Z,18.80
2017-09-01T15:53:23.662Z,18.70
2017-09-01T15:55:51.200Z,18.70
2017-09-01T15:58:18.868Z,18.80
2017-09-01T16:00:46.427Z,18.70
2017-09-01T16:03:13.989Z,18.70
2017-09-01T16:05:41.535Z,18.60
2017-09-01T16:08:09.063Z,18.60
2017-09-01T16:10:36.596Z,18.60
2017-09-01T16:13:04.227Z,18.60
2017-09-01T16:15:31.839Z,18.50
2017-09-01T16:17:59.375Z,18.60
2017-09-01T16:20:26.953Z,18.60
2017-09-01T16:22:54.476Z,18.60
2017-09-01T16:25:21.978Z,18.60
2017-09-01T16:27:49.633Z,18.60
2017-09-01T16:30:17.183Z,18.60
2017-09-01T16:32:44.725Z,18.50
2017-09-01T16:35:12.239Z,18.40
2017-09-01T16:37:39.748Z,18.30
2017-09-01T16:40:07.300Z,18.20
2017-09-01T16:42:34.912Z,18.20
2017-09-01T16:45:02.420Z,18.20
2017-09-01T16:47:30.001Z,18.10
2017-09-01T16:49:57.535Z,18.10
2017-09-01T16:52:25.102Z,18.10
2017-09-01T16:54:52.666Z,18.10
2017-09-01T16:57:20.235Z,18.00
2017-09-01T16:59:47.842Z,18.00
2017-09-01T17:02:15.405Z,18.00
2017-09-01T17:04:42.908Z,17.90
2017-09-01T17:07:10.454Z,17.90
2017-09-01T17:09:38.031Z,17.80
2017-09-01T17:12:05.585Z,17.70
2017-09-01T17:14:33.382Z,17.80
2017-09-01T17:17:00.959Z,17.80
2017-09-01T17:19:28.523Z,17.70
2017-09-01T17:21:56.043Z,17.60
2017-09-01T17:24:23.675Z,17.60
2017-09-01T17:26:51.296Z,17.60
2017-09-01T17:29:18.849Z,17.60
2017-09-01T17:31:46.408Z,17.60
2017-09-01T17:34:13.973Z,17.60
2017-09-01T17:36:41.552Z,17.50
2017-09-01T17:39:09.094Z,17.50
2017-09-01T17:41:36.656Z,17.40
2017-09-01T17:44:04.212Z,17.40
2017-09-01T17:46:31.759Z,17.30
2017-09-01T17:48:59.293Z,17.20
2017-09-01T17:51:26.835Z,17.20
2017-09-01T17:53:54.404Z,17.20
2017-09-01T17:56:21.965Z,17.10
2017-09-01T17:58:49.519Z,17.00
2017-09-01T18:01:17.081Z,17.00
2017-09-01T18:03:44.644Z,16.90
2017-09-01T18:06:12.301Z,16.90
2017-09-01T18:08:39.918Z,16.80
2017-09-01T18:11:07.462Z,16.80
2017-09-01T18:13:35.029Z,16.70
2017-09-01T18:16:02.694Z,16.70
2017-09-01T18:18:30.242Z,16.60
2017-09-01T18:20:57.765Z,16.60
2017-09-01T18:23:25.382Z,16.50
2017-09-01T18:25:53.197Z,16.50
2017-09-01T18:28:20.859Z,16.50
2017-09-01T18:30:49.443Z,16.50
2017-09-01T18:33:17.031Z,16.50
2017-09-01T18:35:44.614Z,16.50
2017-09-01T18:38:13.336Z,16.50
2017-09-01T18:40:40.938Z,16.50
2017-09-01T18:43:08.506Z,16.50
2017-09-01T18:45:36.056Z,16.50
2017-09-01T18:48:03.923Z,16.50
2017-09-01T18:50:31.709Z,16.50
2017-09-01T18:52:59.376Z,16.50
2017-09-01T18:55:26.972Z,16.50
2017-09-01T18:57:54.573Z,16.50
2017-09-01T19:00:25.481Z,16.50
2017-09-01T19:02:53.067Z,16.50
2017-09-01T19:05:20.592Z,16.50
2017-09-01T19:07:48.204Z,16.50
2017-09-01T19:10:15.871Z,16.60
2017-09-01T19:12:44.548Z,16.60
2017-09-01T19:15:12.069Z,16.50
2017-09-01T19:17:39.626Z,16.50
2017-09-01T19:20:07.233Z,16.50
2017-09-01T19:22:34.808Z,16.50
2017-09-01T19:25:02.381Z,16.50
2017-09-01T19:27:29.928Z,16.50
2017-09-01T19:29:57.516Z,16.50
2017-09-01T19:32:25.111Z,16.50
2017-09-01T19:34:52.684Z,16.60
2017-09-01T19:37:20.225Z,16.60
2017-09-01T19:39:47.800Z,16.50
2017-09-01T19:42:15.404Z,16.60
2017-09-01T19:44:43.025Z,16.50
2017-09-01T19:47:10.571Z,16.50
2017-09-01T19:49:38.187Z,16.50
2017-09-01T19:52:05.767Z,16.50
2017-09-01T19:54:33.460Z,16.60
2017-09-01T19:57:01.357Z,16.50
2017-09-01T19:59:29.290Z,16.40
2017-09-01T20:01:57.412Z,16.40
2017-09-01T20:04:24.977Z,16.40
2017-09-01T20:06:52.636Z,16.40
2017-09-01T20:09:20.235Z,16.40
2017-09-01T20:11:47.751Z,16.40
2017-09-01T20:14:15.593Z,16.30
2017-09-01T20:16:43.175Z,16.30
2017-09-01T20:19:10.802Z,16.30
2017-09-01T20:21:38.443Z,16.30
2017-09-01T20:24:06.132Z,16.30
2017-09-01T20:26:33.732Z,16.30
2017-09-01T20:29:01.427Z,16.30
2017-09-01T20:31:29.005Z,16.30
2017-09-01T20:33:56.616Z,16.30
2017-09-01T20:36:24.232Z,16.30
2017-09-01T20:38:51.777Z,16.30
2017-09-01T20:41:19.409Z,16.30
2017-09-01T20:43:47.015Z,16.30
2017-09-01T20:46:14.518Z,16.30
2017-09-01T20:48:42.162Z,16.30
2017-09-01T20:51:16.756Z,16.40
2017-09-01T20:53:44.732Z,16.40
2017-09-01T20:56:12.503Z,16.30
2017-09-01T20:58:40.365Z,16.30
2017-09-01T21:01:07.989Z,16.30
2017-09-01T21:03:35.551Z,16.30
2017-09-01T21:06:03.869Z,16.20
2017-09-01T21:08:32.666Z,16.20
2017-09-01T21:11:01.227Z,16.10
2017-09-01T21:13:28.814Z,16.10
2017-09-01T21:15:56.507Z,16.10
2017-09-01T21:18:24.211Z,16.20
2017-09-01T21:20:51.971Z,16.00
2017-09-01T21:23:19.603Z,16.00
2017-09-01T21:25:47.195Z,16.00
2017-09-01T21:28:14.779Z,15.90
2017-09-01T21:30:42.396Z,16.00
2017-09-01T21:33:12.112Z,16.00
2017-09-01T21:35:39.761Z,16.00
2017-09-01T21:38:07.326Z,16.00
2017-09-01T21:40:34.894Z,16.00
2017-09-01T21:43:02.668Z,16.00
2017-09-01T21:45:30.338Z,16.00
2017-09-01T21:47:57.963Z,15.90
2017-09-01T21:50:25.496Z,15.80
2017-09-01T21:52:53.079Z,15.80
2017-09-01T21:55:20.704Z,15.80
2017-09-01T21:57:48.536Z,15.80
2017-09-01T22:00:16.409Z,15.70
2017-09-01T22:02:43.999Z,15.70
2017-09-01T22:05:11.585Z,15.70
2017-09-01T22:07:39.115Z,15.50
2017-09-01T22:10:06.699Z,15.30
2017-09-01T22:12:34.233Z,15.20
2017-09-01T22:15:01.818Z,15.20
2017-09-01T22:17:29.451Z,15.10
2017-09-01T22:19:56.977Z,15.10
2017-09-01T22:22:24.461Z,15.00
2017-09-01T22:24:52.010Z,15.00
2017-09-01T22:27:19.566Z,15.00
2017-09-01T22:29:47.239Z,14.90
2017-09-01T22:32:14.770Z,14.90
2017-09-01T22:34:42.320Z,14.90
2017-09-01T22:37:09.854Z,14.90
2017-09-01T22:39:37.388Z,14.80
2017-09-01T22:42:04.936Z,14.70
2017-09-01T22:44:32.509Z,14.70
2017-09-01T22:47:00.085Z,14.50
2017-09-01T22:49:27.628Z,14.50
2017-09-01T22:51:55.165Z,14.50
2017-09-01T22:54:25.369Z,14.30
2017-09-01T22:56:52.929Z,14.20
2017-09-01T22:59:20.564Z,14.20
2017-09-01T23:01:48.108Z,14.10
2017-09-01T23:04:15.654Z,14.10
2017-09-01T23:06:43.188Z,14.00
2017-09-01T23:09:10.723Z,14.00
2017-09-01T23:11:38.243Z,14.00
2017-09-01T23:14:05.807Z,13.90
2017-09-01T23:16:33.636Z,13.90
2017-09-01T23:19:01.205Z,13.90
2017-09-01T23:21:28.723Z,13.80
2017-09-01T23:23:56.249Z,13.80
2017-09-01T23:26:23.735Z,13.80
2017-09-01T23:28:51.260Z,13.70
2017-09-01T23:31:18.806Z,13.70
2017-09-01T23:33:46.354Z,13.50
2017-09-01T23:36:13.872Z,13.50
2017-09-01T23:38:41.405Z,13.40
2017-09-01T23:41:08.952Z,13.30
2017-09-01T23:43:36.452Z,13.30
2017-09-01T23:46:04.436Z,13.20
2017-09-01T23:48:31.944Z,13.30
2017-09-01T23:50:59.504Z,13.10
2017-09-01T23:53:27.009Z,13.10
2017-09-01T23:55:54.541Z,13.10
2017-09-01T23:58:22.046Z,13.10
